Time;durP1;ratioP1;P1;durP2;ratioP2;P2;SDS_P1;SDS_P2;PMS_P1;PMS_P2;Temp;Humidity;BMP_temperature;BMP_pressure;BME280_temperature;BME280_humidity;BME280_pressure;Samples;Min_cycle;Max_cycle;Signal;HPM_P1;HPM_P2
2023/09/06 00:01:56;;;;;;;3.57;3.30;;;25.90;88.00;;;;;;5004234;28;20428;-72
2023/09/06 00:04:24;;;;;;;6.30;2.87;;;25.80;87.00;;;;;;4987752;28;20563;-72
2023/09/06 00:06:53;;;;;;;3.07;2.87;;;25.80;87.00;;;;;;5004101;28;20415;-72
2023/09/06 00:09:24;;;;;;;3.60;3.30;;;25.80;87.00;;;;;;4988154;28;20438;-72
2023/09/06 00:11:50;;;;;;;3.20;3.00;;;25.80;86.90;;;;;;5005613;28;20428;-72
2023/09/06 00:14:20;;;;;;;3.07;2.80;;;25.80;87.00;;;;;;5005271;28;20510;-72
2023/09/06 00:16:52;;;;;;;3.30;3.10;;;25.80;86.90;;;;;;5004136;28;20429;-72
2023/09/06 00:19:21;;;;;;;3.00;2.70;;;25.70;86.90;;;;;;5003840;28;20482;-72
2023/09/06 00:21:54;;;;;;;3.50;3.20;;;25.70;86.90;;;;;;5004089;28;20432;-72
2023/09/06 00:24:20;;;;;;;3.37;2.77;;;25.70;86.90;;;;;;5005294;28;20440;-73
2023/09/06 00:26:46;;;;;;;3.27;2.97;;;25.70;86.80;;;;;;4987593;28;21000;-72
2023/09/06 00:29:14;;;;;;;5.13;3.43;;;25.70;86.90;;;;;;5003777;28;20448;-72
2023/09/06 00:31:43;;;;;;;3.37;3.17;;;25.70;86.80;;;;;;4987941;28;20209;-72
2023/09/06 00:34:14;;;;;;;2.83;2.63;;;25.70;86.70;;;;;;4984520;23;21096;-74
2023/09/06 00:36:40;;;;;;;3.13;2.93;;;25.70;86.80;;;;;;5000692;28;20507;-75
2023/09/06 00:39:07;;;;;;;3.90;3.30;;;25.60;86.70;;;;;;4986672;28;20459;-74
2023/09/06 00:41:32;;;;;;;3.03;2.80;;;25.60;86.60;;;;;;4986933;28;20427;-74
2023/09/06 00:44:01;;;;;;;3.03;2.83;;;25.60;86.60;;;;;;4970570;28;20916;-74
2023/09/06 00:46:28;;;;;;;2.90;2.70;;;25.60;87.50;;;;;;5004486;28;20170;-74
2023/09/06 00:48:55;;;;;;;3.17;2.97;;;25.60;86.60;;;;;;4986189;28;20463;-74
2023/09/06 00:51:23;;;;;;;3.43;3.13;;;25.60;86.70;;;;;;4987511;28;20405;-74
2023/09/06 00:53:52;;;;;;;3.30;3.07;;;25.50;86.60;;;;;;4970824;28;20475;-74
2023/09/06 00:56:19;;;;;;;3.73;3.40;;;25.50;86.50;;;;;;4985705;28;21068;-74
2023/09/06 00:58:48;;;;;;;3.23;2.93;;;25.50;86.50;;;;;;4970299;28;20507;-74
2023/09/06 01:01:16;;;;;;;3.37;3.17;;;25.50;86.50;;;;;;4986254;28;20412;-73
2023/09/06 01:03:42;;;;;;;4.00;3.10;;;25.50;86.60;;;;;;4953767;28;20432;-74
2023/09/06 01:06:33;;;;;;;3.30;3.10;;;25.50;86.70;;;;;;5003394;28;20412;-74
2023/09/06 01:09:05;;;;;;;3.97;3.13;;;25.40;86.50;;;;;;4969492;28;20240;-74
2023/09/06 01:11:37;;;;;;;3.23;3.03;;;25.40;86.50;;;;;;4969889;28;21357;-74
2023/09/06 01:14:05;;;;;;;3.20;3.00;;;25.40;86.70;;;;;;4970087;28;20459;-74
2023/09/06 01:16:41;;;;;;;3.10;2.90;;;25.40;86.60;;;;;;4985873;28;20435;-74
2023/09/06 01:19:11;;;;;;;3.90;3.20;;;25.40;86.70;;;;;;4969677;28;20586;-74
2023/09/06 01:22:01;;;;;;;3.60;3.07;;;25.40;86.60;;;;;;4985842;28;20827;-74
2023/09/06 01:24:29;;;;;;;2.93;2.73;;;25.30;86.60;;;;;;4969162;28;20486;-74
2023/09/06 01:26:56;;;;;;;4.53;3.00;;;25.30;86.60;;;;;;4969517;28;20424;-74
2023/09/06 01:29:22;;;;;;;5.13;3.20;;;25.30;86.60;;;;;;4969781;28;20421;-74
2023/09/06 01:31:48;;;;;;;4.33;2.97;;;25.30;86.50;;;;;;4986500;28;20404;-74
2023/09/06 01:34:19;;;;;;;3.67;3.47;;;25.30;86.60;;;;;;4972440;28;20444;-74
2023/09/06 01:36:50;;;;;;;3.23;3.03;;;25.30;86.60;;;;;;4955149;28;20460;-74
2023/09/06 01:39:16;;;;;;;3.53;3.23;;;25.20;86.70;;;;;;4970634;28;20498;-74
2023/09/06 01:41:47;;;;;;;3.53;3.27;;;25.20;86.60;;;;;;4971149;28;20432;-74
2023/09/06 01:44:20;;;;;;;3.17;2.97;;;25.20;86.70;;;;;;4986227;28;20474;-74
2023/09/06 01:46:46;;;;;;;3.60;3.30;;;25.20;86.80;;;;;;4986251;28;20451;-74
2023/09/06 01:49:15;;;;;;;3.20;3.00;;;25.20;86.70;;;;;;4986375;28;21412;-74
2023/09/06 01:51:41;;;;;;;3.50;3.20;;;25.20;86.70;;;;;;4986707;28;20404;-74
2023/09/06 01:54:11;;;;;;;3.00;2.80;;;25.20;86.80;;;;;;4986906;28;20804;-74
2023/09/06 01:56:37;;;;;;;3.47;3.03;;;25.10;86.70;;;;;;5004667;28;20416;-74
2023/09/06 01:59:08;;;;;;;3.60;2.93;;;25.10;86.80;;;;;;4987582;28;20579;-74
2023/09/06 02:01:35;;;;;;;3.53;3.23;;;25.10;86.70;;;;;;4975053;28;20448;-74
2023/09/06 02:04:05;;;;;;;3.30;3.00;;;25.10;86.80;;;;;;4990943;28;20499;-74
2023/09/06 02:06:35;;;;;;;3.10;2.80;;;25.10;86.80;;;;;;4991195;28;20407;-74
2023/09/06 02:09:07;;;;;;;4.20;3.10;;;25.10;86.90;;;;;;5009588;28;20450;-74
2023/09/06 02:11:38;;;;;;;3.03;2.83;;;25.10;86.90;;;;;;4975246;28;20945;-74
2023/09/06 02:14:06;;;;;;;3.27;3.00;;;25.10;86.90;;;;;;4990928;28;20574;-74
2023/09/06 02:16:32;;;;;;;4.17;3.87;;;25.00;86.90;;;;;;4973428;28;20501;-74
2023/09/06 02:19:03;;;;;;;3.10;2.90;;;25.00;86.90;;;;;;4973354;28;20455;-74
2023/09/06 02:21:38;;;;;;;3.50;2.97;;;25.00;86.90;;;;;;4989733;28;20432;-74
2023/09/06 02:24:04;;;;;;;3.50;3.13;;;25.00;86.90;;;;;;4973249;28;20455;-74
2023/09/06 02:26:30;;;;;;;3.33;3.13;;;25.00;86.90;;;;;;4988607;28;20396;-74
2023/09/06 02:29:04;;;;;;;3.27;3.00;;;25.00;87.00;;;;;;4973594;28;20484;-74
2023/09/06 02:31:30;;;;;;;5.00;3.03;;;24.90;86.90;;;;;;4988886;28;21102;-74
2023/09/06 02:33:56;;;;;;;3.43;2.90;;;24.90;86.90;;;;;;4988568;28;20432;-74
2023/09/06 02:36:23;;;;;;;3.03;2.83;;;24.90;86.80;;;;;;4988415;28;20487;-74
2023/09/06 02:38:49;;;;;;;3.43;3.07;;;24.90;86.90;;;;;;4988878;28;20479;-74
2023/09/06 02:41:20;;;;;;;3.83;3.50;;;24.90;87.00;;;;;;4988995;28;20519;-74
2023/09/06 02:43:50;;;;;;;3.70;3.40;;;24.90;86.90;;;;;;4988815;28;20538;-74
2023/09/06 02:46:16;;;;;;;3.37;2.70;;;24.90;86.90;;;;;;4988841;28;20454;-75
2023/09/06 02:48:46;;;;;;;2.80;2.60;;;24.90;86.90;;;;;;4988430;28;20945;-74
2023/09/06 02:51:15;;;;;;;3.60;3.30;;;24.80;86.80;;;;;;4985115;28;20173;-74
2023/09/06 02:53:45;;;;;;;3.30;3.00;;;24.80;86.90;;;;;;4993760;28;21289;-74
2023/09/06 02:56:14;;;;;;;3.70;3.10;;;24.80;86.90;;;;;;4972641;28;20858;-74
2023/09/06 02:58:43;;;;;;;4.33;3.53;;;24.80;86.90;;;;;;4956547;28;21378;-74
2023/09/06 03:01:19;;;;;;;3.63;3.00;;;24.80;86.90;;;;;;4971721;28;20821;-74
2023/09/06 03:03:53;;;;;;;3.70;3.30;;;24.80;86.90;;;;;;4971229;28;21363;-74
2023/09/06 03:06:32;;;;;;;3.50;3.00;;;24.70;86.70;;;;;;5003277;28;21271;-74
2023/09/06 03:09:06;;;;;;;3.97;3.60;;;24.70;86.70;;;;;;4979888;28;20561;-74
2023/09/06 03:11:32;;;;;;;3.83;3.53;;;24.70;86.80;;;;;;4983869;28;20817;-74
2023/09/06 03:14:02;;;;;;;3.53;3.10;;;24.70;86.90;;;;;;4987193;28;20420;-74
2023/09/06 03:16:38;;;;;;;3.23;3.03;;;24.60;86.70;;;;;;4986846;28;20523;-74
2023/09/06 03:19:12;;;;;;;4.20;3.80;;;24.60;86.70;;;;;;4972269;28;20497;-74
2023/09/06 03:21:40;;;;;;;3.40;3.20;;;24.60;86.70;;;;;;4971737;28;20421;-74
2023/09/06 03:24:11;;;;;;;3.50;3.30;;;24.60;86.60;;;;;;4971358;28;20421;-74
2023/09/06 03:26:43;;;;;;;3.80;3.50;;;24.60;86.70;;;;;;4955337;28;20516;-74
2023/09/06 03:29:10;;;;;;;3.70;3.40;;;24.50;86.60;;;;;;4970956;28;20439;-74
2023/09/06 03:31:42;;;;;;;3.83;3.53;;;24.50;86.60;;;;;;4970162;28;20480;-74
2023/09/06 03:34:15;;;;;;;4.03;3.73;;;24.50;86.60;;;;;;4952029;28;21195;-74
2023/09/06 03:36:46;;;;;;;3.67;3.47;;;24.50;86.60;;;;;;4966269;28;20459;-74
2023/09/06 03:39:14;;;;;;;3.47;3.23;;;24.50;86.70;;;;;;4987850;28;20538;-74
2023/09/06 03:41:41;;;;;;;3.43;3.20;;;24.50;86.70;;;;;;4971360;28;20919;-74
2023/09/06 03:44:07;;;;;;;5.50;3.20;;;24.50;86.70;;;;;;4971645;28;20411;-74
2023/09/06 03:46:39;;;;;;;3.80;3.30;;;24.50;86.70;;;;;;4971055;28;20929;-74
2023/09/06 03:49:08;;;;;;;3.23;3.03;;;24.50;86.60;;;;;;4987216;28;21329;-74
2023/09/06 03:51:36;;;;;;;3.90;3.60;;;24.40;86.50;;;;;;4986597;28;20464;-74
2023/09/06 03:54:07;;;;;;;4.97;3.83;;;24.40;86.50;;;;;;4970206;28;20425;-74
2023/09/06 03:56:38;;;;;;;4.23;3.40;;;24.40;86.50;;;;;;4986398;28;20421;-74
2023/09/06 03:59:08;;;;;;;3.43;3.13;;;24.40;86.50;;;;;;4970531;28;20488;-74
2023/09/06 04:01:36;;;;;;;4.17;3.37;;;24.40;86.50;;;;;;4971025;28;20463;-74
2023/09/06 04:04:04;;;;;;;5.13;3.40;;;24.40;86.50;;;;;;4986798;28;20447;-73
2023/09/06 04:06:34;;;;;;;3.73;3.20;;;24.40;86.50;;;;;;4970596;28;20448;-74
2023/09/06 04:09:02;;;;;;;3.90;3.13;;;24.30;86.40;;;;;;5004861;28;20638;-74
2023/09/06 04:11:28;;;;;;;3.67;3.37;;;24.30;86.40;;;;;;4986656;28;20944;-74
2023/09/06 04:13:57;;;;;;;3.60;3.30;;;24.30;86.50;;;;;;4970824;28;20409;-74
2023/09/06 04:16:27;;;;;;;4.00;3.60;;;24.30;86.50;;;;;;4971033;28;20806;-74
2023/09/06 04:18:56;;;;;;;3.80;3.50;;;24.30;86.50;;;;;;4971025;28;21075;-74
2023/09/06 04:21:22;;;;;;;3.10;2.90;;;24.20;86.40;;;;;;4970252;28;20428;-74
2023/09/06 04:23:53;;;;;;;3.30;3.10;;;24.20;86.40;;;;;;4969031;28;21079;-74
2023/09/06 04:26:20;;;;;;;3.90;3.63;;;24.20;86.40;;;;;;4986429;28;20412;-74
2023/09/06 04:28:48;;;;;;;3.60;3.30;;;24.20;86.40;;;;;;4970472;28;20543;-74
2023/09/06 04:31:17;;;;;;;3.97;3.60;;;24.20;86.40;;;;;;4986211;28;21023;-74
2023/09/06 04:33:47;;;;;;;3.77;3.47;;;24.10;86.30;;;;;;4986680;28;20393;-73
2023/09/06 04:36:22;;;;;;;4.10;3.70;;;24.20;86.40;;;;;;4970497;28;21319;-73
2023/09/06 04:38:53;;;;;;;3.00;2.80;;;24.10;86.30;;;;;;4987918;28;20498;-79
2023/09/06 04:41:20;;;;;;;3.60;3.30;;;24.10;86.30;;;;;;4971163;28;20424;-74
2023/09/06 04:43:53;;;;;;;3.50;3.20;;;24.10;86.30;;;;;;4986227;28;20748;-74
2023/09/06 04:46:21;;;;;;;4.33;4.03;;;24.10;86.40;;;;;;4970464;28;20620;-74
2023/09/06 04:48:51;;;;;;;3.07;2.87;;;24.10;86.40;;;;;;4986663;28;20440;-73
2023/09/06 04:51:20;;;;;;;4.40;3.63;;;24.10;86.40;;;;;;4970569;28;20447;-74
2023/09/06 04:53:46;;;;;;;3.87;3.57;;;24.10;86.40;;;;;;4986362;28;20963;-74
2023/09/06 04:56:17;;;;;;;3.60;3.30;;;24.00;86.40;;;;;;4968969;28;20528;-73
2023/09/06 04:58:46;;;;;;;3.83;3.53;;;24.00;86.40;;;;;;4969141;28;20482;-74
2023/09/06 05:01:12;;;;;;;3.37;3.17;;;24.00;86.40;;;;;;4985616;28;20445;-74
2023/09/06 05:03:41;;;;;;;3.40;3.10;;;24.00;86.40;;;;;;4985484;28;20547;-74
2023/09/06 05:06:07;;;;;;;3.33;3.13;;;24.00;86.40;;;;;;5002999;28;21260;-74
2023/09/06 05:08:34;;;;;;;3.97;3.67;;;24.00;86.40;;;;;;4969594;28;20440;-74
2023/09/06 05:11:09;;;;;;;3.70;3.50;;;24.00;86.40;;;;;;4969342;28;20436;-74
2023/09/06 05:13:39;;;;;;;3.77;3.47;;;23.90;86.30;;;;;;4985436;28;20479;-74
2023/09/06 05:16:08;;;;;;;3.40;3.20;;;23.90;86.40;;;;;;4985015;28;20428;-74
2023/09/06 05:18:34;;;;;;;3.80;3.50;;;23.90;86.40;;;;;;4969641;28;21253;-74
2023/09/06 05:21:03;;;;;;;3.97;3.57;;;23.90;86.40;;;;;;4985035;28;20455;-73
2023/09/06 05:23:29;;;;;;;3.90;3.23;;;23.90;86.50;;;;;;4968777;28;20424;-73
2023/09/06 05:25:57;;;;;;;3.47;3.17;;;23.90;86.50;;;;;;5019371;22;20497;-72
2023/09/06 05:28:32;;;;;;;4.30;3.67;;;23.90;86.50;;;;;;5005186;28;20799;-71
2023/09/06 05:31:03;;;;;;;6.50;3.87;;;23.80;86.50;;;;;;4991479;28;20431;-71
2023/09/06 05:33:35;;;;;;;4.40;3.67;;;23.80;86.40;;;;;;5005022;28;20430;-71
2023/09/06 05:36:06;;;;;;;4.50;4.00;;;23.80;86.50;;;;;;5026708;28;20411;-72
2023/09/06 05:38:32;;;;;;;6.40;4.30;;;23.80;86.50;;;;;;5009939;28;20196;-71
2023/09/06 05:40:59;;;;;;;3.67;3.37;;;23.80;86.50;;;;;;5012223;28;20488;-71
2023/09/06 05:43:33;;;;;;;3.90;3.60;;;23.80;86.60;;;;;;4990424;28;20837;-71
2023/09/06 05:45:59;;;;;;;3.47;3.27;;;23.80;86.60;;;;;;4973960;28;21121;-71
2023/09/06 05:48:29;;;;;;;3.70;3.30;;;23.80;86.60;;;;;;4974382;28;20492;-71
2023/09/06 05:50:56;;;;;;;3.80;3.30;;;23.80;86.70;;;;;;4979112;28;20431;-71
2023/09/06 05:53:24;;;;;;;4.57;3.73;;;23.70;86.50;;;;;;5009002;28;20964;-71
2023/09/06 05:55:50;;;;;;;3.80;3.50;;;23.70;86.50;;;;;;5009337;28;20446;-71
2023/09/06 05:58:19;;;;;;;3.70;3.40;;;23.70;86.60;;;;;;5009164;28;20489;-71
2023/09/06 06:00:45;;;;;;;3.10;2.90;;;23.70;86.70;;;;;;4997882;28;20472;-71
2023/09/06 06:03:11;;;;;;;3.43;3.17;;;23.70;86.80;;;;;;4996978;28;20431;-71
2023/09/06 06:05:37;;;;;;;4.40;3.20;;;23.70;86.80;;;;;;5025181;28;20407;-71
2023/09/06 06:08:06;;;;;;;3.40;3.10;;;23.70;86.80;;;;;;4973746;28;20455;-71
2023/09/06 06:10:36;;;;;;;3.37;3.10;;;23.70;86.90;;;;;;4989447;28;20423;-71
2023/09/06 06:13:07;;;;;;;3.80;3.50;;;23.70;87.00;;;;;;4972837;28;20444;-71
2023/09/06 06:15:33;;;;;;;4.13;3.83;;;23.70;87.10;;;;;;4988787;28;20599;-71
2023/09/06 06:17:59;;;;;;;3.93;3.30;;;23.70;87.00;;;;;;4988567;28;20458;-71
2023/09/06 06:20:25;;;;;;;3.70;3.40;;;23.70;87.10;;;;;;5006881;28;20443;-71
2023/09/06 06:22:53;;;;;;;4.33;3.93;;;23.60;87.00;;;;;;4973352;28;20439;-71
2023/09/06 06:25:21;;;;;;;4.20;3.90;;;23.60;87.90;;;;;;4974252;28;20526;-72
2023/09/06 06:27:49;;;;;;;4.30;3.40;;;23.60;87.10;;;;;;5008799;28;20446;-71
2023/09/06 06:30:18;;;;;;;3.40;3.03;;;23.60;87.20;;;;;;5008041;28;20439;-71
2023/09/06 06:32:44;;;;;;;4.17;3.73;;;23.60;87.30;;;;;;5025253;28;20908;-72
2023/09/06 06:35:12;;;;;;;3.67;3.37;;;23.60;87.40;;;;;;5008235;28;20427;-71
2023/09/06 06:37:38;;;;;;;3.70;3.40;;;23.60;87.40;;;;;;4972929;28;20456;-72
2023/09/06 06:40:05;;;;;;;4.10;3.80;;;23.60;87.50;;;;;;4973944;28;20462;-71
2023/09/06 06:42:33;;;;;;;3.97;3.67;;;23.60;87.50;;;;;;4990462;28;20780;-71
2023/09/06 06:45:01;;;;;;;4.73;3.40;;;23.50;87.40;;;;;;5005036;28;21303;-71
2023/09/06 06:47:28;;;;;;;3.90;3.60;;;23.60;87.60;;;;;;4971461;28;20448;-71
2023/09/06 06:49:54;;;;;;;5.17;4.30;;;23.60;87.70;;;;;;4988854;28;20436;-72
2023/09/06 06:52:23;;;;;;;3.70;3.40;;;23.60;87.70;;;;;;5006313;28;20431;-72
2023/09/06 06:54:51;;;;;;;3.93;3.63;;;23.60;87.70;;;;;;4988255;28;20787;-73
2023/09/06 06:57:22;;;;;;;3.73;3.43;;;23.60;87.80;;;;;;4988115;28;20221;-71
2023/09/06 06:59:50;;;;;;;3.57;3.27;;;23.60;87.80;;;;;;5006441;28;20475;-73
2023/09/06 07:02:19;;;;;;;3.70;3.40;;;23.60;87.80;;;;;;4989632;28;20439;-72
2023/09/06 07:04:45;;;;;;;4.40;4.00;;;23.60;87.80;;;;;;5025796;28;20408;-72
2023/09/06 07:07:12;;;;;;;3.60;3.30;;;23.60;87.80;;;;;;4990661;28;20459;-72
2023/09/06 07:09:41;;;;;;;4.13;3.73;;;23.60;87.80;;;;;;5006187;28;20447;-72
2023/09/06 07:12:11;;;;;;;4.10;3.80;;;23.60;87.70;;;;;;4989151;28;20452;-72
2023/09/06 07:14:40;;;;;;;4.20;3.80;;;23.60;87.70;;;;;;4998309;28;20921;-72
2023/09/06 07:17:06;;;;;;;4.23;3.67;;;23.60;87.70;;;;;;4972411;28;20539;-72
2023/09/06 07:19:33;;;;;;;4.20;3.20;;;23.60;87.70;;;;;;4956029;28;20525;-72
2023/09/06 07:22:03;;;;;;;4.13;3.83;;;23.60;87.70;;;;;;4972374;28;20444;-72
2023/09/06 07:24:29;;;;;;;3.83;3.50;;;23.50;87.50;;;;;;5005616;28;20416;-72
2023/09/06 07:27:02;;;;;;;4.50;3.63;;;23.60;87.60;;;;;;4985481;28;20423;-72
2023/09/06 07:29:32;;;;;;;4.00;3.77;;;23.60;87.60;;;;;;5024805;28;20586;-72
2023/09/06 07:31:58;;;;;;;4.20;3.77;;;23.60;87.60;;;;;;5023840;28;20427;-72
2023/09/06 07:34:27;;;;;;;4.90;3.70;;;23.60;87.60;;;;;;5038103;28;21227;-72
2023/09/06 07:36:52;;;;;;;3.47;3.27;;;23.60;88.50;;;;;;5012030;28;20173;-72
2023/09/06 07:39:20;;;;;;;3.80;3.50;;;23.60;87.60;;;;;;5024306;28;20964;-72
2023/09/06 07:41:47;;;;;;;3.67;3.37;;;23.60;87.60;;;;;;5024405;28;20665;-72
2023/09/06 07:44:15;;;;;;;4.50;4.20;;;23.60;87.60;;;;;;5023010;28;20404;-71
2023/09/06 07:46:48;;;;;;;3.90;3.60;;;23.60;87.60;;;;;;4987091;28;20409;-71
2023/09/06 07:49:18;;;;;;;4.50;4.10;;;23.60;87.60;;;;;;4987381;28;20515;-72
2023/09/06 07:51:47;;;;;;;3.90;3.60;;;23.50;87.50;;;;;;5004538;28;20535;-71
2023/09/06 07:54:16;;;;;;;4.70;4.40;;;23.60;87.60;;;;;;4986835;28;20530;-71
2023/09/06 07:56:47;;;;;;;4.43;4.03;;;23.60;87.60;;;;;;4990019;28;20458;-71
2023/09/06 07:59:14;;;;;;;4.13;3.83;;;23.60;87.60;;;;;;5024128;28;20462;-71
2023/09/06 08:01:40;;;;;;;4.07;3.67;;;23.50;87.40;;;;;;5006521;28;21171;-71
2023/09/06 08:04:09;;;;;;;4.50;4.10;;;23.60;87.60;;;;;;5011466;28;20980;-71
2023/09/06 08:06:42;;;;;;;4.07;3.77;;;23.60;87.60;;;;;;4986847;28;20427;-72
2023/09/06 08:09:11;;;;;;;5.20;4.80;;;23.60;87.50;;;;;;5004392;28;20408;-71
2023/09/06 08:11:37;;;;;;;4.20;3.90;;;23.60;87.60;;;;;;5004477;28;20412;-72
2023/09/06 08:14:07;;;;;;;4.07;3.70;;;23.60;87.50;;;;;;5004606;28;20586;-71
2023/09/06 08:16:35;;;;;;;4.50;4.13;;;23.60;87.40;;;;;;4970901;28;20543;-71
2023/09/06 08:19:03;;;;;;;4.40;4.00;;;23.60;87.40;;;;;;4987147;28;20547;-71
2023/09/06 08:21:29;;;;;;;4.60;4.30;;;23.60;87.40;;;;;;4971982;28;20272;-71
2023/09/06 08:24:02;;;;;;;4.33;4.03;;;23.60;87.40;;;;;;4986728;28;20944;-71
2023/09/06 08:26:29;;;;;;;4.53;4.13;;;23.60;87.40;;;;;;4970855;28;20474;-72
2023/09/06 08:28:56;;;;;;;4.73;4.20;;;23.60;87.40;;;;;;4986711;28;20483;-71
2023/09/06 08:31:27;;;;;;;4.33;3.90;;;23.60;87.40;;;;;;4986454;28;20422;-72
2023/09/06 08:33:53;;;;;;;5.63;5.13;;;23.70;87.50;;;;;;5007580;28;20478;-71
2023/09/06 08:36:19;;;;;;;4.77;4.37;;;23.60;87.30;;;;;;4980294;28;21282;-72
2023/09/06 08:38:45;;;;;;;5.23;4.83;;;23.70;87.50;;;;;;4997686;28;20458;-72
2023/09/06 08:41:11;;;;;;;6.30;4.60;;;23.70;87.40;;;;;;5022594;28;21000;-72
2023/09/06 08:46:38;;;;;;;4.30;4.00;;;23.70;87.60;;;;;;1472951;26;20482;-71
2023/09/06 08:49:07;;;;;;;4.70;4.30;;;23.70;87.60;;;;;;5004042;28;20455;-71
2023/09/06 08:51:36;;;;;;;5.40;4.87;;;23.70;87.70;;;;;;5004780;28;20503;-71
2023/09/06 08:54:08;;;;;;;4.70;4.30;;;23.80;87.90;;;;;;4986122;28;20502;-71
2023/09/06 08:56:35;;;;;;;5.30;4.80;;;23.80;87.90;;;;;;5003676;28;20424;-71
2023/09/06 08:59:05;;;;;;;5.40;4.90;;;23.80;87.90;;;;;;4986249;28;20554;-71
2023/09/06 09:01:31;;;;;;;4.80;4.33;;;23.80;88.00;;;;;;4986273;28;20443;-72
2023/09/06 09:03:59;;;;;;;5.70;4.67;;;23.80;88.10;;;;;;5003509;28;20416;-71
2023/09/06 09:06:25;;;;;;;5.33;4.70;;;23.90;88.10;;;;;;4968900;28;20552;-71
2023/09/06 09:08:51;;;;;;;4.73;4.37;;;23.90;88.00;;;;;;4984903;28;20436;-71
2023/09/06 09:11:18;;;;;;;4.90;4.50;;;23.90;88.00;;;;;;4982324;28;20459;-71
2023/09/06 09:13:47;;;;;;;5.23;4.73;;;23.90;87.90;;;;;;5001392;28;20436;-71
2023/09/06 09:16:15;;;;;;;6.10;5.00;;;24.00;88.00;;;;;;4985148;28;20439;-72
2023/09/06 09:18:47;;;;;;;5.77;5.20;;;24.00;87.90;;;;;;5003029;28;20455;-71
2023/09/06 09:21:16;;;;;;;5.20;4.80;;;24.00;87.80;;;;;;4985465;28;20833;-71
2023/09/06 09:24:08;;;;;;;5.10;4.67;;;24.10;87.80;;;;;;5003675;28;20834;-71
2023/09/06 09:26:34;;;;;;;5.87;5.37;;;24.10;87.80;;;;;;4986146;28;20502;-71
2023/09/06 09:29:03;;;;;;;4.67;4.27;;;24.10;87.80;;;;;;4969080;28;20937;-71
2023/09/06 09:31:30;;;;;;;5.80;5.30;;;24.10;87.90;;;;;;4984706;28;20477;-71
2023/09/06 09:34:01;;;;;;;5.77;5.27;;;24.20;87.90;;;;;;4969391;28;20473;-71
2023/09/06 09:36:34;;;;;;;4.90;4.50;;;24.20;87.80;;;;;;4969712;28;20474;-71
2023/09/06 09:39:13;;;;;;;6.43;5.00;;;24.20;87.70;;;;;;4969909;28;21171;-72
2023/09/06 09:41:43;;;;;;;5.90;5.40;;;24.20;87.60;;;;;;5003328;28;20451;-72
2023/09/06 09:44:13;;;;;;;4.90;4.50;;;24.30;87.70;;;;;;4985869;28;21057;-72
2023/09/06 09:46:43;;;;;;;5.40;4.90;;;24.30;87.60;;;;;;4985898;28;21397;-72
2023/09/06 09:49:11;;;;;;;6.03;5.37;;;24.40;87.60;;;;;;5003582;28;20547;-72
2023/09/06 09:51:38;;;;;;;5.47;5.07;;;24.40;87.50;;;;;;5003239;28;20424;-72
2023/09/06 09:54:09;;;;;;;5.33;4.73;;;24.40;87.50;;;;;;4969098;28;20450;-72
2023/09/06 09:56:37;;;;;;;5.73;5.33;;;24.40;87.40;;;;;;4985417;28;21370;-72
2023/09/06 09:59:08;;;;;;;5.23;4.80;;;24.50;87.40;;;;;;4985735;28;21087;-72
2023/09/06 10:01:38;;;;;;;5.03;4.63;;;24.50;87.40;;;;;;5002180;28;20880;-72
2023/09/06 10:04:05;;;;;;;5.83;5.33;;;24.50;87.20;;;;;;4985446;28;20416;-72
2023/09/06 10:06:35;;;;;;;5.40;5.00;;;24.50;87.20;;;;;;5002755;28;20487;-72
2023/09/06 10:09:12;;;;;;;5.60;5.20;;;24.60;87.20;;;;;;4985297;28;20903;-71
2023/09/06 10:11:42;;;;;;;5.50;5.07;;;24.60;87.10;;;;;;4984868;28;20446;-71
2023/09/06 10:14:14;;;;;;;5.93;5.43;;;24.60;86.90;;;;;;4968612;28;20471;-72
2023/09/06 10:16:40;;;;;;;5.50;5.00;;;24.70;86.80;;;;;;4984886;28;20428;-71
2023/09/06 10:19:08;;;;;;;5.87;5.27;;;24.70;86.60;;;;;;5002824;28;20534;-72
2023/09/06 10:21:34;;;;;;;4.60;4.30;;;24.70;86.50;;;;;;4987476;28;20462;-72
2023/09/06 10:24:02;;;;;;;5.93;5.43;;;24.80;86.50;;;;;;4972212;28;20483;-72
2023/09/06 10:26:35;;;;;;;6.03;5.43;;;24.80;86.30;;;;;;4972775;28;20453;-74
2023/09/06 10:29:01;;;;;;;5.40;4.90;;;24.80;86.20;;;;;;5006906;28;20473;-73
2023/09/06 10:31:58;;;;;;;6.60;6.00;;;24.90;86.10;;;;;;4988907;28;21303;-73
2023/09/06 10:34:26;;;;;;;6.40;5.80;;;24.90;86.10;;;;;;4986023;28;20512;-72
2023/09/06 10:36:56;;;;;;;5.53;5.03;;;24.90;85.90;;;;;;4985977;28;20488;-72
2023/09/06 10:39:30;;;;;;;5.83;5.43;;;25.00;85.90;;;;;;4970511;28;20916;-72
2023/09/06 10:42:13;;;;;;;5.83;5.33;;;25.00;85.80;;;;;;4986268;28;20474;-72
2023/09/06 10:44:55;;;;;;;6.23;5.73;;;25.00;85.50;;;;;;5002127;28;20704;-72
2023/09/06 10:47:32;;;;;;;6.10;5.57;;;25.10;85.40;;;;;;4978255;28;20558;-72
2023/09/06 10:50:09;;;;;;;5.53;5.03;;;25.10;85.40;;;;;;5003821;28;20548;-72
2023/09/06 10:52:45;;;;;;;5.20;4.80;;;25.10;85.30;;;;;;4986898;28;20431;-72
2023/09/06 10:55:26;;;;;;;5.87;5.37;;;25.20;85.00;;;;;;4986060;28;20823;-72
2023/09/06 10:58:06;;;;;;;5.63;5.13;;;25.20;84.90;;;;;;4969750;28;20832;-72
2023/09/06 11:00:34;;;;;;;5.40;4.90;;;25.20;84.70;;;;;;5003711;28;20463;-72
2023/09/06 11:03:06;;;;;;;5.40;5.00;;;25.30;84.80;;;;;;4970216;28;20444;-72
2023/09/06 11:05:35;;;;;;;5.87;5.47;;;25.30;84.60;;;;;;4982966;28;20428;-72
2023/09/06 11:08:04;;;;;;;5.70;4.93;;;25.30;84.50;;;;;;4986334;28;21004;-72
2023/09/06 11:10:31;;;;;;;5.33;4.93;;;25.40;84.60;;;;;;4985634;28;20975;-72
2023/09/06 11:13:07;;;;;;;5.37;4.87;;;25.40;84.50;;;;;;4986069;28;20448;-72
2023/09/06 11:15:38;;;;;;;5.43;4.97;;;25.40;84.40;;;;;;4986567;28;20541;-71
2023/09/06 11:18:08;;;;;;;5.60;5.17;;;25.50;84.60;;;;;;5007504;28;20556;-72
2023/09/06 11:20:35;;;;;;;5.87;5.37;;;25.50;84.50;;;;;;4974146;28;20471;-72
2023/09/06 11:23:03;;;;;;;6.07;5.57;;;25.60;84.60;;;;;;4987892;28;20455;-72
2023/09/06 11:28:29;;;;;;;5.40;5.00;;;25.60;84.40;;;;;;4330646;26;20504;-72
2023/09/06 11:30:57;;;;;;;5.73;5.23;;;25.70;84.30;;;;;;4967500;28;20562;-72
2023/09/06 11:33:30;;;;;;;5.43;4.93;;;25.70;84.00;;;;;;4986094;28;20463;-73
2023/09/06 11:36:03;;;;;;;5.70;5.20;;;25.70;83.80;;;;;;5004745;28;20953;-72
2023/09/06 11:38:34;;;;;;;6.33;5.83;;;25.70;83.70;;;;;;4972050;28;20455;-73
2023/09/06 11:41:03;;;;;;;5.53;5.13;;;25.80;83.90;;;;;;4952620;28;20523;-72
2023/09/06 11:43:31;;;;;;;6.07;5.57;;;25.80;83.60;;;;;;4937075;28;20458;-73
2023/09/06 11:46:03;;;;;;;5.90;5.50;;;25.90;83.60;;;;;;4986495;28;20421;-72
2023/09/06 11:48:35;;;;;;;5.27;4.87;;;25.90;83.70;;;;;;5001126;28;21393;-72
2023/09/06 11:51:13;;;;;;;5.83;5.33;;;25.90;83.60;;;;;;4989380;28;20499;-72
2023/09/06 11:53:43;;;;;;;5.90;5.33;;;25.90;83.50;;;;;;4952293;28;20429;-72
2023/09/06 11:56:13;;;;;;;5.70;5.20;;;26.00;83.40;;;;;;4985470;28;20440;-72
2023/09/06 11:58:43;;;;;;;6.03;5.53;;;26.00;83.30;;;;;;4967669;28;20457;-72
2023/09/06 12:01:18;;;;;;;5.20;4.80;;;26.00;83.40;;;;;;4986697;28;20607;-72
2023/09/06 12:03:47;;;;;;;5.30;4.80;;;26.10;83.30;;;;;;4978105;28;21493;-72
2023/09/06 12:06:15;;;;;;;5.17;4.77;;;26.10;83.10;;;;;;5013583;28;20493;-72
2023/09/06 12:08:45;;;;;;;6.00;5.50;;;26.10;83.10;;;;;;4985654;28;20639;-72
2023/09/06 12:11:14;;;;;;;5.70;5.20;;;26.10;83.00;;;;;;4967319;28;20810;-72
2023/09/06 12:13:40;;;;;;;5.53;5.10;;;26.20;83.00;;;;;;4967162;28;20479;-72
2023/09/06 12:16:08;;;;;;;6.30;5.40;;;26.20;83.00;;;;;;4967766;28;20871;-72
2023/09/06 12:18:39;;;;;;;5.37;4.93;;;26.20;82.90;;;;;;4967412;28;20441;-72
2023/09/06 12:21:06;;;;;;;12.90;5.60;;;26.30;83.00;;;;;;4967239;28;20623;-72
2023/09/06 12:23:36;;;;;;;5.40;4.90;;;26.30;83.00;;;;;;4967218;28;20425;-72
2023/09/06 12:26:03;;;;;;;6.67;6.07;;;26.40;83.00;;;;;;4985053;28;20440;-72
2023/09/06 12:28:31;;;;;;;5.80;5.40;;;26.40;82.80;;;;;;5002242;28;20477;-72
2023/09/06 12:31:05;;;;;;;5.60;5.10;;;26.40;82.70;;;;;;4985974;28;20513;-72
2023/09/06 12:33:33;;;;;;;5.13;4.73;;;26.40;82.70;;;;;;5003811;28;20491;-72
2023/09/06 12:36:00;;;;;;;5.90;5.50;;;26.40;82.60;;;;;;5001842;28;20428;-72
2023/09/06 12:38:28;;;;;;;6.17;5.60;;;26.50;82.50;;;;;;5002314;28;20440;-71
2023/09/06 12:40:54;;;;;;;5.03;4.63;;;26.50;82.50;;;;;;4984947;28;20981;-72
2023/09/06 12:43:21;;;;;;;6.90;5.47;;;26.50;82.40;;;;;;4984007;28;20468;-72
2023/09/06 12:45:48;;;;;;;5.10;4.70;;;26.60;82.50;;;;;;4984297;28;20453;-72
2023/09/06 12:48:17;;;;;;;6.03;5.43;;;26.60;82.40;;;;;;4950214;28;20582;-72
2023/09/06 12:50:48;;;;;;;5.77;5.33;;;26.60;82.30;;;;;;4984357;28;21154;-72
2023/09/06 12:53:14;;;;;;;5.23;4.77;;;26.70;82.20;;;;;;4965966;28;20435;-72
2023/09/06 12:55:40;;;;;;;5.77;5.27;;;26.70;82.10;;;;;;4974663;28;20490;-72
2023/09/06 12:58:06;;;;;;;5.10;4.70;;;26.70;81.90;;;;;;4985705;28;20440;-72
2023/09/06 13:00:35;;;;;;;5.30;4.83;;;26.80;82.00;;;;;;4938518;28;20530;-72
2023/09/06 13:03:01;;;;;;;4.93;4.60;;;26.80;81.90;;;;;;4999530;28;20603;-72
2023/09/06 13:05:30;;;;;;;5.30;4.90;;;26.80;81.90;;;;;;4998488;28;20472;-72